createdAt,value
2023-04-07T00:03:38.551Z,9.15
2023-04-07T00:08:42.695Z,7.30
2023-04-07T00:13:46.315Z,4.43
2023-04-07T00:18:49.833Z,4.93
2023-04-07T00:23:54.618Z,5.60
2023-04-07T00:28:58.999Z,4.32
2023-04-07T00:34:02.706Z,7.60
2023-04-07T00:39:06.362Z,6.63
2023-04-07T00:44:10.092Z,9.38
2023-04-07T00:49:13.942Z,7.45
2023-04-07T00:54:18.405Z,5.28
2023-04-07T00:59:22.243Z,6.82
2023-04-07T01:04:33.509Z,5.25
2023-04-07T01:10:00.881Z,4.88
2023-04-07T01:15:12.731Z,6.38
2023-04-07T01:20:21.635Z,4.07
2023-04-07T01:25:34.200Z,4.90
2023-04-07T01:30:42.087Z,3.70
2023-04-07T01:35:47.332Z,5.95
2023-04-07T01:40:52.421Z,5.93
2023-04-07T01:45:58.357Z,9.50
2023-04-07T01:51:03.275Z,5.38
2023-04-07T01:56:07.452Z,4.57
2023-04-07T02:01:14.924Z,5.65
2023-04-07T02:06:28.352Z,6.55
2023-04-07T02:11:34.909Z,12.02
2023-04-07T02:16:42.226Z,7.72
2023-04-07T02:21:47.102Z,6.25
2023-04-07T02:26:53.124Z,6.57
2023-04-07T02:31:56.931Z,4.85
2023-04-07T02:37:00.029Z,5.05
2023-04-07T02:42:04.447Z,9.65
2023-04-07T02:47:07.730Z,6.78
2023-04-07T02:52:11.812Z,6.70
2023-04-07T02:57:15.266Z,4.75
2023-04-07T03:02:18.669Z,6.57
2023-04-07T03:07:23.174Z,7.78
2023-04-07T03:12:30.696Z,5.68
2023-04-07T03:17:35.058Z,4.25
2023-04-07T03:22:38.816Z,6.35
2023-04-07T03:27:47.551Z,3.38
2023-04-07T03:32:52.274Z,6.38
2023-04-07T03:37:56.056Z,6.80
2023-04-07T03:43:00.446Z,4.78
2023-04-07T03:48:03.777Z,3.15
2023-04-07T03:53:09.725Z,7.30
2023-04-07T03:58:13.973Z,6.88
2023-04-07T04:03:18.615Z,8.70
2023-04-07T04:08:34.258Z,15.48
2023-04-07T04:13:37.919Z,9.30
2023-04-07T04:18:42.466Z,6.13
2023-04-07T04:23:49.287Z,5.00
2023-04-07T04:28:54.107Z,4.82
2023-04-07T04:33:58.784Z,4.85
2023-04-07T04:39:03.634Z,5.68
2023-04-07T04:44:08.120Z,5.07
2023-04-07T04:49:12.387Z,4.82
2023-04-07T04:54:17.704Z,6.25
2023-04-07T04:59:23.147Z,9.52
2023-04-07T05:04:35.890Z,5.38
2023-04-07T05:09:59.571Z,5.40
2023-04-07T05:15:03.575Z,5.47
2023-04-07T05:20:09.582Z,8.13
2023-04-07T05:25:16.600Z,7.00
2023-04-07T05:30:22.596Z,5.93
2023-04-07T05:35:26.444Z,9.50
2023-04-07T05:40:34.055Z,9.50
2023-04-07T05:45:40.785Z,6.22
2023-04-07T05:50:44.834Z,8.18
2023-04-07T05:55:52.745Z,9.15
2023-04-07T06:01:05.021Z,7.10
2023-04-07T06:06:09.257Z,10.40
2023-04-07T06:11:13.510Z,5.40
2023-04-07T06:16:19.057Z,4.40
2023-04-07T06:21:24.401Z,4.47
2023-04-07T06:26:28.678Z,2.10
2023-04-07T06:31:33.318Z,4.28
2023-04-07T06:36:37.852Z,3.53
2023-04-07T06:41:43.476Z,6.55
2023-04-07T06:46:54.362Z,3.85
2023-04-07T06:51:59.381Z,2.95
2023-04-07T06:57:03.216Z,5.78
2023-04-07T07:02:08.009Z,1.95
2023-04-07T07:07:11.782Z,8.27
2023-04-07T07:12:17.447Z,2.95
2023-04-07T07:17:21.102Z,6.60
2023-04-07T07:22:24.907Z,3.00
2023-04-07T07:27:27.929Z,2.30
2023-04-07T07:32:32.082Z,3.63
2023-04-07T07:37:35.372Z,5.10
2023-04-07T07:42:39.902Z,5.43
2023-04-07T07:47:43.743Z,3.08
2023-04-07T07:52:48.847Z,3.25
2023-04-07T07:57:52.544Z,4.32
2023-04-07T08:02:56.808Z,3.28
2023-04-07T08:08:00.483Z,3.55
2023-04-07T08:13:05.624Z,3.33
2023-04-07T08:18:09.727Z,4.05
2023-04-07T08:23:13.965Z,3.75
2023-04-07T08:28:17.459Z,3.20
2023-04-07T08:33:21.109Z,3.80
2023-04-07T08:38:25.226Z,3.22
2023-04-07T08:43:29.661Z,4.28
2023-04-07T08:48:36.178Z,4.40
2023-04-07T08:58:49.837Z,4.40
2023-04-07T09:03:53.808Z,4.63
2023-04-07T09:08:57.795Z,3.65
2023-04-07T09:14:01.997Z,2.97
2023-04-07T09:19:06.606Z,8.68
2023-04-07T09:24:23.236Z,9.10
2023-04-07T09:29:26.400Z,5.75
2023-04-07T09:34:32.155Z,7.28
2023-04-07T09:39:50.981Z,5.22
2023-04-07T09:44:54.979Z,4.38
2023-04-07T09:49:59.711Z,5.13
2023-04-07T09:55:07.271Z,3.00
2023-04-07T10:00:11.746Z,6.78
2023-04-07T10:05:16.528Z,7.38
2023-04-07T10:10:20.292Z,4.18
2023-04-07T10:15:24.053Z,4.43
2023-04-07T10:20:29.186Z,7.70
2023-04-07T10:25:36.575Z,4.15
2023-04-07T10:30:43.529Z,4.32
2023-04-07T10:36:09.319Z,7.13
2023-04-07T10:41:44.129Z,6.60
2023-04-07T10:46:50.024Z,3.53
2023-04-07T10:52:12.274Z,3.20
2023-04-07T10:57:17.291Z,5.90
2023-04-07T11:02:24.242Z,3.17
2023-04-07T11:07:54.194Z,3.40
2023-04-07T11:13:02.625Z,3.88
2023-04-07T11:18:15.152Z,4.70
2023-04-07T11:23:20.459Z,4.68
2023-04-07T11:28:23.795Z,4.50
2023-04-07T11:33:29.932Z,4.40
2023-04-07T11:38:38.315Z,3.63
2023-04-07T11:43:43.253Z,4.13
2023-04-07T11:48:47.832Z,3.53
2023-04-07T11:53:57.627Z,5.38
2023-04-07T11:59:02.898Z,3.28
2023-04-07T12:04:06.814Z,4.10
2023-04-07T12:09:29.902Z,3.20
2023-04-07T12:14:33.668Z,3.80
2023-04-07T12:19:39.775Z,3.72
2023-04-07T12:24:44.256Z,7.20
2023-04-07T12:29:49.153Z,4.88
2023-04-07T12:34:52.803Z,4.38
2023-04-07T12:39:56.446Z,5.05
2023-04-07T12:45:00.756Z,4.45
2023-04-07T12:50:04.887Z,3.38
2023-04-07T12:55:09.369Z,6.60
2023-04-07T13:00:15.087Z,3.88
2023-04-07T13:05:19.241Z,3.40
2023-04-07T13:10:22.849Z,2.45
2023-04-07T13:15:28.769Z,2.67
2023-04-07T13:20:33.213Z,4.68
2023-04-07T13:25:38.576Z,4.10
2023-04-07T13:30:42.189Z,3.42
2023-04-07T13:35:45.348Z,2.53
2023-04-07T13:40:49.937Z,2.55
2023-04-07T13:45:55.518Z,2.47
2023-04-07T13:50:59.601Z,4.47
2023-04-07T13:56:03.990Z,3.05
2023-04-07T14:01:07.653Z,4.30
2023-04-07T14:06:11.441Z,2.58
2023-04-07T14:11:19.415Z,2.47
2023-04-07T14:16:23.279Z,2.83
2023-04-07T14:21:28.073Z,4.47
2023-04-07T14:26:31.309Z,3.22
2023-04-07T14:31:35.000Z,2.50
2023-04-07T14:36:38.732Z,2.58
2023-04-07T14:41:42.206Z,3.05
2023-04-07T14:46:46.921Z,2.60
2023-04-07T14:51:50.507Z,2.40
2023-04-07T14:56:53.788Z,2.53
2023-04-07T15:01:57.636Z,3.25
2023-04-07T15:07:01.168Z,3.90
2023-04-07T15:12:05.755Z,2.88
2023-04-07T15:17:09.438Z,4.88
2023-04-07T15:22:20.688Z,2.37
2023-04-07T15:27:24.350Z,3.33
2023-04-07T15:32:30.711Z,2.33
2023-04-07T15:37:34.495Z,2.10
2023-04-07T15:42:41.682Z,2.28
2023-04-07T15:47:45.202Z,3.45
2023-04-07T15:52:49.103Z,5.38
2023-04-07T15:57:53.520Z,2.65
2023-04-07T16:02:57.321Z,7.03
2023-04-07T16:08:00.756Z,3.95
2023-04-07T16:13:04.360Z,2.70
2023-04-07T16:18:09.242Z,3.42
2023-04-07T16:23:12.738Z,2.90
2023-04-07T16:28:16.269Z,3.67
2023-04-07T16:33:19.781Z,2.55
2023-04-07T16:38:23.368Z,3.90
2023-04-07T16:43:27.121Z,2.75
2023-04-07T16:48:30.690Z,3.05
2023-04-07T16:53:34.115Z,5.53
2023-04-07T16:58:38.178Z,4.10
2023-04-07T17:03:42.372Z,3.38
2023-04-07T17:08:46.314Z,4.63
2023-04-07T17:13:57.156Z,4.93
2023-04-07T17:19:01.181Z,4.93
2023-04-07T17:24:04.281Z,4.68
2023-04-07T17:29:08.423Z,5.10
2023-04-07T17:34:12.561Z,3.58
2023-04-07T17:39:20.232Z,5.00
2023-04-07T17:44:24.135Z,4.43
2023-04-07T17:49:27.924Z,3.50
2023-04-07T17:54:31.453Z,4.13
2023-04-07T17:59:34.833Z,5.50
2023-04-07T18:04:38.140Z,6.97
2023-04-07T18:09:43.169Z,9.73
2023-04-07T18:14:47.014Z,9.98
2023-04-07T18:19:51.018Z,9.30
2023-04-07T18:24:55.106Z,13.82
2023-04-07T18:29:59.123Z,11.80
2023-04-07T18:35:02.684Z,10.18
2023-04-07T18:40:07.174Z,10.88
2023-04-07T18:45:11.195Z,7.45
2023-04-07T18:50:15.665Z,8.77
2023-04-07T18:55:20.967Z,7.15
2023-04-07T19:00:24.109Z,7.03
2023-04-07T19:05:27.737Z,7.55
2023-04-07T19:10:31.276Z,8.90
2023-04-07T19:15:38.500Z,6.80
2023-04-07T19:20:42.144Z,8.85
2023-04-07T19:25:45.910Z,8.80
2023-04-07T19:30:49.287Z,11.73
2023-04-07T19:35:52.784Z,9.15
2023-04-07T19:40:56.868Z,9.05
2023-04-07T19:46:00.096Z,7.80
2023-04-07T19:51:06.721Z,7.78
2023-04-07T19:56:11.402Z,6.65
2023-04-07T20:01:19.104Z,17.55
2023-04-07T20:06:25.295Z,12.23
2023-04-07T20:11:29.423Z,7.28
2023-04-07T20:16:33.098Z,5.25
2023-04-07T20:21:37.805Z,7.68
2023-04-07T20:26:41.809Z,10.13
2023-04-07T20:31:45.611Z,3.42
2023-04-07T20:36:52.200Z,8.15
2023-04-07T20:41:55.795Z,4.33
2023-04-07T20:46:59.584Z,4.38
2023-04-07T20:52:04.496Z,3.47
2023-04-07T20:57:07.944Z,4.63
2023-04-07T21:02:11.603Z,10.82
2023-04-07T21:07:15.342Z,5.45
2023-04-07T21:12:19.190Z,3.70
2023-04-07T21:17:22.838Z,4.22
2023-04-07T21:22:28.427Z,5.20
2023-04-07T21:27:31.994Z,6.78
2023-04-07T21:32:35.825Z,8.55
2023-04-07T21:37:38.920Z,3.33
2023-04-07T21:42:42.009Z,5.03
2023-04-07T21:47:45.783Z,3.35
2023-04-07T21:52:51.240Z,9.55
2023-04-07T21:57:55.425Z,4.97
2023-04-07T22:02:59.746Z,6.25
2023-04-07T22:08:03.534Z,7.45
2023-04-07T22:13:07.179Z,8.35
2023-04-07T22:18:12.226Z,10.80
2023-04-07T22:23:16.488Z,9.57
2023-04-07T22:28:20.685Z,8.57
2023-04-07T22:33:23.875Z,10.35
2023-04-07T22:38:27.708Z,9.15
2023-04-07T22:43:31.339Z,9.45
2023-04-07T22:48:34.587Z,8.07
2023-04-07T22:53:38.764Z,8.25
2023-04-07T22:58:42.326Z,7.55
2023-04-07T23:03:46.483Z,12.43
2023-04-07T23:08:50.447Z,10.30
2023-04-07T23:13:53.720Z,10.40
2023-04-07T23:18:57.201Z,12.35
2023-04-07T23:24:00.457Z,22.60
2023-04-07T23:29:04.521Z,13.57
2023-04-07T23:34:07.952Z,4.93
2023-04-07T23:39:11.813Z,4.28
2023-04-07T23:44:14.927Z,3.15
2023-04-07T23:49:18.105Z,4.50
2023-04-07T23:54:21.781Z,3.10
2023-04-07T23:59:25.569Z,3.53
